sensor_id;sensor_type;location;lat;lon;timestamp;temperature;humidity
49579;DHT22;35483;50.828;3.228;2023-09-19T00:01:23;16.70;95.90
49579;DHT22;35483;50.828;3.228;2023-09-19T00:03:49;16.70;95.90
49579;DHT22;35483;50.828;3.228;2023-09-19T00:06:15;16.60;95.90
49579;DHT22;35483;50.828;3.228;2023-09-19T00:08:41;16.60;95.90
49579;DHT22;35483;50.828;3.228;2023-09-19T00:11:09;16.60;95.90
49579;DHT22;35483;50.828;3.228;2023-09-19T00:13:36;16.60;95.90
49579;DHT22;35483;50.828;3.228;2023-09-19T00:16:08;16.60;95.90
49579;DHT22;35483;50.828;3.228;2023-09-19T00:18:34;16.70;95.80
49579;DHT22;35483;50.828;3.228;2023-09-19T00:21:00;16.70;95.80
49579;DHT22;35483;50.828;3.228;2023-09-19T00:23:26;16.80;95.80
49579;DHT22;35483;50.828;3.228;2023-09-19T00:25:52;16.90;95.80
49579;DHT22;35483;50.828;3.228;2023-09-19T00:28:23;16.90;95.70
49579;DHT22;35483;50.828;3.228;2023-09-19T00:30:49;17.00;95.70
49579;DHT22;35483;50.828;3.228;2023-09-19T00:33:21;17.00;95.70
49579;DHT22;35483;50.828;3.228;2023-09-19T00:35:52;17.00;95.60
49579;DHT22;35483;50.828;3.228;2023-09-19T00:38:19;17.00;95.60
49579;DHT22;35483;50.828;3.228;2023-09-19T00:40:53;17.00;95.60
49579;DHT22;35483;50.828;3.228;2023-09-19T00:43:22;17.10;95.60
49579;DHT22;35483;50.828;3.228;2023-09-19T00:45:52;17.10;95.50
49579;DHT22;35483;50.828;3.228;2023-09-19T00:48:20;17.10;95.50
49579;DHT22;35483;50.828;3.228;2023-09-19T00:50:47;17.10;95.60
49579;DHT22;35483;50.828;3.228;2023-09-19T00:53:21;17.10;95.50
49579;DHT22;35483;50.828;3.228;2023-09-19T00:55:49;17.10;95.40
49579;DHT22;35483;50.828;3.228;2023-09-19T00:58:17;17.10;95.40
49579;DHT22;35483;50.828;3.228;2023-09-19T01:00:43;17.10;95.40
49579;DHT22;35483;50.828;3.228;2023-09-19T01:03:10;17.20;95.40
49579;DHT22;35483;50.828;3.228;2023-09-19T01:05:38;17.20;95.40
49579;DHT22;35483;50.828;3.228;2023-09-19T01:08:05;17.20;95.30
49579;DHT22;35483;50.828;3.228;2023-09-19T01:10:33;17.20;95.30
49579;DHT22;35483;50.828;3.228;2023-09-19T01:16:43;17.30;94.60
49579;DHT22;35483;50.828;3.228;2023-09-19T01:22:26;17.30;94.90
49579;DHT22;35483;50.828;3.228;2023-09-19T01:30:47;17.30;94.90
49579;DHT22;35483;50.828;3.228;2023-09-19T01:33:16;17.30;95.10
49579;DHT22;35483;50.828;3.228;2023-09-19T01:35:42;17.30;95.10
49579;DHT22;35483;50.828;3.228;2023-09-19T01:38:08;17.30;95.10
49579;DHT22;35483;50.828;3.228;2023-09-19T01:40:45;17.30;95.10
49579;DHT22;35483;50.828;3.228;2023-09-19T01:45:52;17.20;95.10
49579;DHT22;35483;50.828;3.228;2023-09-19T01:48:54;17.20;95.00
49579;DHT22;35483;50.828;3.228;2023-09-19T01:51:38;17.10;95.00
49579;DHT22;35483;50.828;3.228;2023-09-19T01:54:13;17.10;95.10
49579;DHT22;35483;50.828;3.228;2023-09-19T02:00:16;17.00;95.10
49579;DHT22;35483;50.828;3.228;2023-09-19T02:02:46;17.00;95.10
49579;DHT22;35483;50.828;3.228;2023-09-19T02:05:13;17.00;95.30
49579;DHT22;35483;50.828;3.228;2023-09-19T02:07:47;17.00;95.30
49579;DHT22;35483;50.828;3.228;2023-09-19T02:10:13;17.00;95.30
49579;DHT22;35483;50.828;3.228;2023-09-19T02:12:39;17.00;95.30
49579;DHT22;35483;50.828;3.228;2023-09-19T02:15:05;17.00;95.40
49579;DHT22;35483;50.828;3.228;2023-09-19T02:17:32;17.00;95.40
49579;DHT22;35483;50.828;3.228;2023-09-19T02:19:58;17.00;95.40
49579;DHT22;35483;50.828;3.228;2023-09-19T02:22:28;17.00;95.40
49579;DHT22;35483;50.828;3.228;2023-09-19T02:24:55;17.00;95.40
49579;DHT22;35483;50.828;3.228;2023-09-19T02:27:24;17.00;95.40
49579;DHT22;35483;50.828;3.228;2023-09-19T02:29:49;17.00;95.40
49579;DHT22;35483;50.828;3.228;2023-09-19T02:32:15;17.00;95.40
49579;DHT22;35483;50.828;3.228;2023-09-19T02:34:43;17.00;95.40
49579;DHT22;35483;50.828;3.228;2023-09-19T02:37:10;17.00;95.40
49579;DHT22;35483;50.828;3.228;2023-09-19T02:39:36;17.00;95.40
49579;DHT22;35483;50.828;3.228;2023-09-19T02:42:02;17.00;95.50
49579;DHT22;35483;50.828;3.228;2023-09-19T02:44:29;17.00;95.40
49579;DHT22;35483;50.828;3.228;2023-09-19T02:46:55;17.00;95.40
49579;DHT22;35483;50.828;3.228;2023-09-19T02:49:23;17.00;95.40
49579;DHT22;35483;50.828;3.228;2023-09-19T02:51:49;17.00;95.40
49579;DHT22;35483;50.828;3.228;2023-09-19T02:54:14;17.10;95.40
49579;DHT22;35483;50.828;3.228;2023-09-19T02:56:41;17.00;95.40
49579;DHT22;35483;50.828;3.228;2023-09-19T02:59:07;17.00;95.40
49579;DHT22;35483;50.828;3.228;2023-09-19T03:01:36;17.00;95.40
49579;DHT22;35483;50.828;3.228;2023-09-19T03:04:04;16.90;95.40
49579;DHT22;35483;50.828;3.228;2023-09-19T03:06:34;16.80;95.40
49579;DHT22;35483;50.828;3.228;2023-09-19T03:08:59;16.80;95.50
49579;DHT22;35483;50.828;3.228;2023-09-19T03:11:26;16.80;95.50
49579;DHT22;35483;50.828;3.228;2023-09-19T03:13:53;16.70;95.50
49579;DHT22;35483;50.828;3.228;2023-09-19T03:16:19;16.70;95.50
49579;DHT22;35483;50.828;3.228;2023-09-19T03:18:48;16.70;95.50
49579;DHT22;35483;50.828;3.228;2023-09-19T03:21:15;16.60;95.50
49579;DHT22;35483;50.828;3.228;2023-09-19T03:23:41;16.60;95.60
49579;DHT22;35483;50.828;3.228;2023-09-19T03:26:08;16.50;95.60
49579;DHT22;35483;50.828;3.228;2023-09-19T03:28:34;16.50;95.60
49579;DHT22;35483;50.828;3.228;2023-09-19T03:31:02;16.50;95.60
49579;DHT22;35483;50.828;3.228;2023-09-19T03:33:28;16.40;95.60
49579;DHT22;35483;50.828;3.228;2023-09-19T03:35:54;16.40;95.60
49579;DHT22;35483;50.828;3.228;2023-09-19T03:38:20;16.30;95.60
49579;DHT22;35483;50.828;3.228;2023-09-19T03:40:49;16.40;95.70
49579;DHT22;35483;50.828;3.228;2023-09-19T03:43:15;16.30;95.60
49579;DHT22;35483;50.828;3.228;2023-09-19T03:45:40;16.30;95.60
49579;DHT22;35483;50.828;3.228;2023-09-19T03:48:10;16.30;95.70
49579;DHT22;35483;50.828;3.228;2023-09-19T03:50:36;16.20;95.70
49579;DHT22;35483;50.828;3.228;2023-09-19T03:53:02;16.20;95.70
49579;DHT22;35483;50.828;3.228;2023-09-19T03:55:28;16.20;95.70
49579;DHT22;35483;50.828;3.228;2023-09-19T03:57:56;16.10;95.70
49579;DHT22;35483;50.828;3.228;2023-09-19T04:00:22;16.10;95.70
49579;DHT22;35483;50.828;3.228;2023-09-19T04:02:51;16.10;95.80
49579;DHT22;35483;50.828;3.228;2023-09-19T04:05:17;16.10;95.80
49579;DHT22;35483;50.828;3.228;2023-09-19T04:07:43;16.10;95.80
49579;DHT22;35483;50.828;3.228;2023-09-19T04:10:09;16.10;95.80
49579;DHT22;35483;50.828;3.228;2023-09-19T04:12:37;16.10;95.90
49579;DHT22;35483;50.828;3.228;2023-09-19T04:15:06;16.10;95.90
49579;DHT22;35483;50.828;3.228;2023-09-19T04:17:32;16.00;95.90
49579;DHT22;35483;50.828;3.228;2023-09-19T04:20:01;16.00;95.90
49579;DHT22;35483;50.828;3.228;2023-09-19T04:22:27;16.00;96.00
49579;DHT22;35483;50.828;3.228;2023-09-19T04:24:52;16.00;95.90
49579;DHT22;35483;50.828;3.228;2023-09-19T04:27:18;16.00;96.00
49579;DHT22;35483;50.828;3.228;2023-09-19T04:29:44;16.10;96.00
49579;DHT22;35483;50.828;3.228;2023-09-19T04:32:10;16.10;96.00
49579;DHT22;35483;50.828;3.228;2023-09-19T04:34:36;16.10;96.00
49579;DHT22;35483;50.828;3.228;2023-09-19T04:37:03;16.10;96.00
49579;DHT22;35483;50.828;3.228;2023-09-19T04:39:29;16.10;96.00
49579;DHT22;35483;50.828;3.228;2023-09-19T04:41:55;16.10;96.00
49579;DHT22;35483;50.828;3.228;2023-09-19T04:44:21;16.10;96.00
49579;DHT22;35483;50.828;3.228;2023-09-19T04:46:47;16.00;96.00
49579;DHT22;35483;50.828;3.228;2023-09-19T04:49:13;16.10;96.10
49579;DHT22;35483;50.828;3.228;2023-09-19T04:51:39;16.10;96.10
49579;DHT22;35483;50.828;3.228;2023-09-19T04:54:06;16.00;96.10
49579;DHT22;35483;50.828;3.228;2023-09-19T04:56:32;16.00;96.10
49579;DHT22;35483;50.828;3.228;2023-09-19T04:58:58;16.00;96.10
49579;DHT22;35483;50.828;3.228;2023-09-19T05:01:25;16.00;96.10
49579;DHT22;35483;50.828;3.228;2023-09-19T05:03:50;16.00;96.00
49579;DHT22;35483;50.828;3.228;2023-09-19T05:06:19;16.00;96.00
49579;DHT22;35483;50.828;3.228;2023-09-19T05:08:49;16.00;96.00
49579;DHT22;35483;50.828;3.228;2023-09-19T05:11:21;16.00;96.00
49579;DHT22;35483;50.828;3.228;2023-09-19T05:13:48;16.00;96.20
49579;DHT22;35483;50.828;3.228;2023-09-19T05:16:18;16.00;96.10
49579;DHT22;35483;50.828;3.228;2023-09-19T05:18:44;16.00;96.20
49579;DHT22;35483;50.828;3.228;2023-09-19T05:21:10;16.00;96.20
49579;DHT22;35483;50.828;3.228;2023-09-19T05:23:36;16.00;96.20
49579;DHT22;35483;50.828;3.228;2023-09-19T05:26:02;16.10;96.20
49579;DHT22;35483;50.828;3.228;2023-09-19T05:28:29;16.10;96.20
49579;DHT22;35483;50.828;3.228;2023-09-19T05:30:55;16.10;96.10
49579;DHT22;35483;50.828;3.228;2023-09-19T05:33:21;16.20;96.10
49579;DHT22;35483;50.828;3.228;2023-09-19T05:35:49;16.20;96.10
49579;DHT22;35483;50.828;3.228;2023-09-19T05:38:15;16.30;96.20
49579;DHT22;35483;50.828;3.228;2023-09-19T05:40:44;16.30;96.10
49579;DHT22;35483;50.828;3.228;2023-09-19T05:43:10;16.30;96.10
49579;DHT22;35483;50.828;3.228;2023-09-19T05:45:36;16.40;96.20
49579;DHT22;35483;50.828;3.228;2023-09-19T05:48:13;16.40;96.10
49579;DHT22;35483;50.828;3.228;2023-09-19T05:50:39;16.40;96.10
49579;DHT22;35483;50.828;3.228;2023-09-19T05:53:05;16.40;96.20
49579;DHT22;35483;50.828;3.228;2023-09-19T05:55:32;16.40;96.20
49579;DHT22;35483;50.828;3.228;2023-09-19T05:57:58;16.40;96.20
49579;DHT22;35483;50.828;3.228;2023-09-19T06:00:25;16.30;96.20
49579;DHT22;35483;50.828;3.228;2023-09-19T06:02:57;16.30;96.20
49579;DHT22;35483;50.828;3.228;2023-09-19T06:05:27;16.30;96.50
49579;DHT22;35483;50.828;3.228;2023-09-19T06:07:53;16.30;96.30
49579;DHT22;35483;50.828;3.228;2023-09-19T06:10:19;16.30;96.20
49579;DHT22;35483;50.828;3.228;2023-09-19T06:12:48;16.30;96.20
49579;DHT22;35483;50.828;3.228;2023-09-19T06:15:15;16.40;96.20
49579;DHT22;35483;50.828;3.228;2023-09-19T06:17:48;16.40;96.20
49579;DHT22;35483;50.828;3.228;2023-09-19T06:20:14;16.40;96.20
49579;DHT22;35483;50.828;3.228;2023-09-19T06:22:44;16.40;96.20
49579;DHT22;35483;50.828;3.228;2023-09-19T06:25:12;16.50;96.30
49579;DHT22;35483;50.828;3.228;2023-09-19T06:27:41;16.50;96.20
49579;DHT22;35483;50.828;3.228;2023-09-19T06:30:09;16.50;96.10
49579;DHT22;35483;50.828;3.228;2023-09-19T06:32:35;16.60;96.10
49579;DHT22;35483;50.828;3.228;2023-09-19T06:35:01;16.60;96.20
49579;DHT22;35483;50.828;3.228;2023-09-19T06:37:28;16.60;96.20
49579;DHT22;35483;50.828;3.228;2023-09-19T06:39:54;16.70;96.10
49579;DHT22;35483;50.828;3.228;2023-09-19T06:42:20;16.70;96.10
49579;DHT22;35483;50.828;3.228;2023-09-19T06:44:48;16.80;96.10
49579;DHT22;35483;50.828;3.228;2023-09-19T06:47:14;16.80;96.10
49579;DHT22;35483;50.828;3.228;2023-09-19T06:49:41;16.80;96.10
49579;DHT22;35483;50.828;3.228;2023-09-19T06:52:09;16.90;96.30
49579;DHT22;35483;50.828;3.228;2023-09-19T06:54:35;16.90;96.10
49579;DHT22;35483;50.828;3.228;2023-09-19T06:57:01;17.00;96.10
49579;DHT22;35483;50.828;3.228;2023-09-19T06:59:27;17.00;96.00
49579;DHT22;35483;50.828;3.228;2023-09-19T07:01:53;17.10;96.00
49579;DHT22;35483;50.828;3.228;2023-09-19T07:04:19;17.20;96.00
49579;DHT22;35483;50.828;3.228;2023-09-19T07:06:50;17.20;96.00
49579;DHT22;35483;50.828;3.228;2023-09-19T07:09:16;17.30;96.00
49579;DHT22;35483;50.828;3.228;2023-09-19T07:11:42;17.40;96.00
49579;DHT22;35483;50.828;3.228;2023-09-19T07:14:08;17.40;96.10
49579;DHT22;35483;50.828;3.228;2023-09-19T07:16:40;17.50;95.80
49579;DHT22;35483;50.828;3.228;2023-09-19T07:19:08;17.50;95.70
49579;DHT22;35483;50.828;3.228;2023-09-19T07:21:33;17.60;95.80
49579;DHT22;35483;50.828;3.228;2023-09-19T07:24:01;17.60;95.70
49579;DHT22;35483;50.828;3.228;2023-09-19T07:26:28;17.60;95.80
49579;DHT22;35483;50.828;3.228;2023-09-19T07:28:54;17.60;95.70
49579;DHT22;35483;50.828;3.228;2023-09-19T07:31:20;17.70;95.80
49579;DHT22;35483;50.828;3.228;2023-09-19T07:33:48;17.80;95.70
49579;DHT22;35483;50.828;3.228;2023-09-19T07:36:14;17.80;95.70
49579;DHT22;35483;50.828;3.228;2023-09-19T07:38:40;17.90;95.70
49579;DHT22;35483;50.828;3.228;2023-09-19T07:41:07;17.90;95.60
49579;DHT22;35483;50.828;3.228;2023-09-19T07:43:35;18.00;95.60
49579;DHT22;35483;50.828;3.228;2023-09-19T07:46:07;18.00;95.60
49579;DHT22;35483;50.828;3.228;2023-09-19T07:48:35;18.10;95.80
49579;DHT22;35483;50.828;3.228;2023-09-19T07:51:05;18.20;95.60
49579;DHT22;35483;50.828;3.228;2023-09-19T07:53:32;18.20;95.60
49579;DHT22;35483;50.828;3.228;2023-09-19T07:56:07;18.20;95.60
49579;DHT22;35483;50.828;3.228;2023-09-19T07:58:34;18.30;95.50
49579;DHT22;35483;50.828;3.228;2023-09-19T08:01:08;18.30;95.50
49579;DHT22;35483;50.828;3.228;2023-09-19T08:03:34;18.30;95.40
49579;DHT22;35483;50.828;3.228;2023-09-19T08:06:03;18.40;95.50
49579;DHT22;35483;50.828;3.228;2023-09-19T08:08:28;18.40;95.50
49579;DHT22;35483;50.828;3.228;2023-09-19T08:10:57;18.40;95.40
49579;DHT22;35483;50.828;3.228;2023-09-19T08:13:23;18.40;95.40
49579;DHT22;35483;50.828;3.228;2023-09-19T08:15:50;18.50;95.40
49579;DHT22;35483;50.828;3.228;2023-09-19T08:18:16;18.50;95.40
49579;DHT22;35483;50.828;3.228;2023-09-19T08:20:43;18.60;95.40
49579;DHT22;35483;50.828;3.228;2023-09-19T08:23:11;18.60;95.30
49579;DHT22;35483;50.828;3.228;2023-09-19T08:25:37;18.60;95.30
49579;DHT22;35483;50.828;3.228;2023-09-19T08:28:04;18.60;95.30
49579;DHT22;35483;50.828;3.228;2023-09-19T08:30:33;18.70;95.30
49579;DHT22;35483;50.828;3.228;2023-09-19T08:33:00;18.80;95.30
49579;DHT22;35483;50.828;3.228;2023-09-19T08:35:29;18.90;95.30
49579;DHT22;35483;50.828;3.228;2023-09-19T08:37:55;18.90;95.20
49579;DHT22;35483;50.828;3.228;2023-09-19T08:40:21;19.00;95.20
49579;DHT22;35483;50.828;3.228;2023-09-19T08:42:51;19.00;95.10
49579;DHT22;35483;50.828;3.228;2023-09-19T08:45:22;19.10;95.20
49579;DHT22;35483;50.828;3.228;2023-09-19T08:50:49;19.30;94.90
49579;DHT22;35483;50.828;3.228;2023-09-19T08:53:21;19.30;95.10
49579;DHT22;35483;50.828;3.228;2023-09-19T08:55:51;19.40;94.90
49579;DHT22;35483;50.828;3.228;2023-09-19T08:58:20;19.50;95.00
49579;DHT22;35483;50.828;3.228;2023-09-19T09:00:48;19.60;95.00
49579;DHT22;35483;50.828;3.228;2023-09-19T09:03:16;19.70;95.00
49579;DHT22;35483;50.828;3.228;2023-09-19T09:05:45;19.70;95.00
49579;DHT22;35483;50.828;3.228;2023-09-19T09:08:13;19.80;94.90
49579;DHT22;35483;50.828;3.228;2023-09-19T09:10:39;19.80;94.90
49579;DHT22;35483;50.828;3.228;2023-09-19T09:13:06;19.80;95.00
49579;DHT22;35483;50.828;3.228;2023-09-19T09:15:36;19.80;95.00
49579;DHT22;35483;50.828;3.228;2023-09-19T09:18:02;19.70;94.90
49579;DHT22;35483;50.828;3.228;2023-09-19T09:20:30;19.70;95.10
49579;DHT22;35483;50.828;3.228;2023-09-19T09:22:57;19.60;95.00
49579;DHT22;35483;50.828;3.228;2023-09-19T09:25:50;19.50;95.10
49579;DHT22;35483;50.828;3.228;2023-09-19T09:28:25;19.50;94.90
49579;DHT22;35483;50.828;3.228;2023-09-19T09:30:52;19.50;95.10
49579;DHT22;35483;50.828;3.228;2023-09-19T09:33:18;19.50;95.10
49579;DHT22;35483;50.828;3.228;2023-09-19T09:35:55;19.50;95.00
49579;DHT22;35483;50.828;3.228;2023-09-19T09:38:44;19.50;94.90
49579;DHT22;35483;50.828;3.228;2023-09-19T09:41:10;19.60;94.50
49579;DHT22;35483;50.828;3.228;2023-09-19T09:43:41;19.60;95.00
49579;DHT22;35483;50.828;3.228;2023-09-19T09:46:18;19.70;95.00
49579;DHT22;35483;50.828;3.228;2023-09-19T09:49:05;19.90;94.80
49579;DHT22;35483;50.828;3.228;2023-09-19T09:51:42;20.10;94.70
49579;DHT22;35483;50.828;3.228;2023-09-19T09:54:26;20.20;94.80
49579;DHT22;35483;50.828;3.228;2023-09-19T09:57:08;20.20;94.80
49579;DHT22;35483;50.828;3.228;2023-09-19T09:59:56;20.10;94.90
49579;DHT22;35483;50.828;3.228;2023-09-19T10:02:42;20.10;94.70
49579;DHT22;35483;50.828;3.228;2023-09-19T10:05:18;20.00;95.00
49579;DHT22;35483;50.828;3.228;2023-09-19T10:07:54;20.00;94.90
49579;DHT22;35483;50.828;3.228;2023-09-19T10:10:36;20.00;94.90
49579;DHT22;35483;50.828;3.228;2023-09-19T10:13:10;20.00;94.40
49579;DHT22;35483;50.828;3.228;2023-09-19T10:15:51;20.00;94.60
49579;DHT22;35483;50.828;3.228;2023-09-19T10:18:29;20.10;94.70
49579;DHT22;35483;50.828;3.228;2023-09-19T10:20:56;20.20;94.40
49579;DHT22;35483;50.828;3.228;2023-09-19T10:23:22;20.30;94.80
49579;DHT22;35483;50.828;3.228;2023-09-19T10:25:49;20.30;94.70
49579;DHT22;35483;50.828;3.228;2023-09-19T10:28:17;20.30;94.80
49579;DHT22;35483;50.828;3.228;2023-09-19T10:30:48;20.40;94.80
49579;DHT22;35483;50.828;3.228;2023-09-19T10:33:17;20.50;94.70
49579;DHT22;35483;50.828;3.228;2023-09-19T10:35:45;20.60;94.60
49579;DHT22;35483;50.828;3.228;2023-09-19T10:38:13;20.80;94.00
49579;DHT22;35483;50.828;3.228;2023-09-19T10:40:40;20.90;93.50
49579;DHT22;35483;50.828;3.228;2023-09-19T10:43:16;21.00;94.40
49579;DHT22;35483;50.828;3.228;2023-09-19T10:45:45;21.20;94.10
49579;DHT22;35483;50.828;3.228;2023-09-19T10:48:13;21.10;94.20
49579;DHT22;35483;50.828;3.228;2023-09-19T10:50:46;21.10;94.30
49579;DHT22;35483;50.828;3.228;2023-09-19T10:53:15;21.10;94.10
49579;DHT22;35483;50.828;3.228;2023-09-19T10:55:52;21.30;94.30
49579;DHT22;35483;50.828;3.228;2023-09-19T10:58:31;21.40;94.20
49579;DHT22;35483;50.828;3.228;2023-09-19T11:01:02;21.40;94.00
49579;DHT22;35483;50.828;3.228;2023-09-19T11:03:33;21.40;94.20
49579;DHT22;35483;50.828;3.228;2023-09-19T11:06:04;21.40;94.30
49579;DHT22;35483;50.828;3.228;2023-09-19T11:30:35;21.90;92.90
49579;DHT22;35483;50.828;3.228;2023-09-19T11:36:00;22.00;93.60
49579;DHT22;35483;50.828;3.228;2023-09-19T11:49:31;21.80;93.70
49579;DHT22;35483;50.828;3.228;2023-09-19T11:52:03;21.70;93.50
49579;DHT22;35483;50.828;3.228;2023-09-19T11:54:35;21.60;93.90
49579;DHT22;35483;50.828;3.228;2023-09-19T11:57:05;21.60;93.90
49579;DHT22;35483;50.828;3.228;2023-09-19T11:59:33;21.50;93.90
49579;DHT22;35483;50.828;3.228;2023-09-19T12:02:06;21.50;93.90
49579;DHT22;35483;50.828;3.228;2023-09-19T12:04:37;21.50;93.30
49579;DHT22;35483;50.828;3.228;2023-09-19T12:07:08;21.60;93.60
49579;DHT22;35483;50.828;3.228;2023-09-19T12:09:40;21.60;93.60
49579;DHT22;35483;50.828;3.228;2023-09-19T12:12:30;21.70;93.60
49579;DHT22;35483;50.828;3.228;2023-09-19T12:14:56;21.90;93.60
49579;DHT22;35483;50.828;3.228;2023-09-19T12:17:39;22.00;93.50
49579;DHT22;35483;50.828;3.228;2023-09-19T12:20:06;22.10;92.30
49579;DHT22;35483;50.828;3.228;2023-09-19T12:22:39;22.10;93.50
49579;DHT22;35483;50.828;3.228;2023-09-19T12:25:06;22.30;93.40
49579;DHT22;35483;50.828;3.228;2023-09-19T12:27:43;22.30;93.30
49579;DHT22;35483;50.828;3.228;2023-09-19T12:30:13;22.40;91.60
49579;DHT22;35483;50.828;3.228;2023-09-19T12:32:46;22.40;92.70
49579;DHT22;35483;50.828;3.228;2023-09-19T12:35:28;22.30;93.30
49579;DHT22;35483;50.828;3.228;2023-09-19T12:37:56;22.30;93.40
49579;DHT22;35483;50.828;3.228;2023-09-19T12:40:23;22.20;93.30
49579;DHT22;35483;50.828;3.228;2023-09-19T12:42:56;22.10;93.30
49579;DHT22;35483;50.828;3.228;2023-09-19T12:45:24;22.10;93.30
49579;DHT22;35483;50.828;3.228;2023-09-19T12:48:22;22.20;93.30
49579;DHT22;35483;50.828;3.228;2023-09-19T12:51:08;22.20;92.30
49579;DHT22;35483;50.828;3.228;2023-09-19T12:53:38;22.30;93.10
49579;DHT22;35483;50.828;3.228;2023-09-19T12:56:15;22.30;91.80
49579;DHT22;35483;50.828;3.228;2023-09-19T13:01:19;22.20;92.80
49579;DHT22;35483;50.828;3.228;2023-09-19T13:03:45;22.20;93.30
49579;DHT22;35483;50.828;3.228;2023-09-19T13:06:11;22.20;93.30
49579;DHT22;35483;50.828;3.228;2023-09-19T13:08:39;22.30;93.30
49579;DHT22;35483;50.828;3.228;2023-09-19T13:13:37;22.40;93.20
49579;DHT22;35483;50.828;3.228;2023-09-19T13:16:04;22.40;93.10
49579;DHT22;35483;50.828;3.228;2023-09-19T13:18:54;22.40;92.80
49579;DHT22;35483;50.828;3.228;2023-09-19T13:21:48;22.30;92.70
49579;DHT22;35483;50.828;3.228;2023-09-19T13:24:24;22.10;92.40
49579;DHT22;35483;50.828;3.228;2023-09-19T13:26:56;22.10;92.70
49579;DHT22;35483;50.828;3.228;2023-09-19T13:29:22;22.10;92.50
49579;DHT22;35483;50.828;3.228;2023-09-19T13:31:50;22.00;93.10
49579;DHT22;35483;50.828;3.228;2023-09-19T13:34:19;22.00;93.10
49579;DHT22;35483;50.828;3.228;2023-09-19T13:36:45;21.90;93.10
49579;DHT22;35483;50.828;3.228;2023-09-19T13:39:16;22.00;93.20
49579;DHT22;35483;50.828;3.228;2023-09-19T13:41:47;22.00;93.10
49579;DHT22;35483;50.828;3.228;2023-09-19T13:44:14;21.90;92.90
49579;DHT22;35483;50.828;3.228;2023-09-19T13:46:39;21.80;93.10
49579;DHT22;35483;50.828;3.228;2023-09-19T13:49:06;21.80;93.20
49579;DHT22;35483;50.828;3.228;2023-09-19T13:51:32;21.70;93.10
49579;DHT22;35483;50.828;3.228;2023-09-19T13:53:58;21.70;93.20
49579;DHT22;35483;50.828;3.228;2023-09-19T13:56:25;21.60;93.20
49579;DHT22;35483;50.828;3.228;2023-09-19T13:58:58;21.60;93.20
49579;DHT22;35483;50.828;3.228;2023-09-19T14:01:24;21.50;93.00
49579;DHT22;35483;50.828;3.228;2023-09-19T14:03:51;21.50;93.00
49579;DHT22;35483;50.828;3.228;2023-09-19T14:06:19;21.40;93.00
49579;DHT22;35483;50.828;3.228;2023-09-19T14:08:45;21.30;93.10
49579;DHT22;35483;50.828;3.228;2023-09-19T14:11:13;21.30;93.10
49579;DHT22;35483;50.828;3.228;2023-09-19T14:13:43;21.40;93.10
49579;DHT22;35483;50.828;3.228;2023-09-19T14:16:14;21.50;93.00
49579;DHT22;35483;50.828;3.228;2023-09-19T14:18:39;21.70;93.00
49579;DHT22;35483;50.828;3.228;2023-09-19T14:21:05;21.80;92.90
49579;DHT22;35483;50.828;3.228;2023-09-19T14:23:38;21.90;92.90
49579;DHT22;35483;50.828;3.228;2023-09-19T14:26:04;21.90;92.10
49579;DHT22;35483;50.828;3.228;2023-09-19T14:28:33;21.90;92.90
49579;DHT22;35483;50.828;3.228;2023-09-19T14:31:09;21.80;93.00
49579;DHT22;35483;50.828;3.228;2023-09-19T14:33:36;21.80;92.40
49579;DHT22;35483;50.828;3.228;2023-09-19T14:36:03;21.70;93.00
49579;DHT22;35483;50.828;3.228;2023-09-19T14:38:34;21.70;92.90
49579;DHT22;35483;50.828;3.228;2023-09-19T14:41:01;21.60;93.10
49579;DHT22;35483;50.828;3.228;2023-09-19T14:43:27;21.50;93.10
49579;DHT22;35483;50.828;3.228;2023-09-19T14:45:54;21.50;93.10
49579;DHT22;35483;50.828;3.228;2023-09-19T14:48:20;21.50;93.10
49579;DHT22;35483;50.828;3.228;2023-09-19T14:50:48;21.40;93.00
49579;DHT22;35483;50.828;3.228;2023-09-19T14:53:16;21.40;93.20
49579;DHT22;35483;50.828;3.228;2023-09-19T14:55:42;21.30;93.10
49579;DHT22;35483;50.828;3.228;2023-09-19T14:58:10;21.30;93.10
49579;DHT22;35483;50.828;3.228;2023-09-19T15:00:37;21.30;93.20
49579;DHT22;35483;50.828;3.228;2023-09-19T15:03:04;21.30;93.20
49579;DHT22;35483;50.828;3.228;2023-09-19T15:05:29;21.20;93.20
49579;DHT22;35483;50.828;3.228;2023-09-19T15:07:56;21.20;93.20
49579;DHT22;35483;50.828;3.228;2023-09-19T15:10:23;21.20;93.20
49579;DHT22;35483;50.828;3.228;2023-09-19T15:12:48;21.10;93.20
49579;DHT22;35483;50.828;3.228;2023-09-19T15:15:14;21.00;93.30
49579;DHT22;35483;50.828;3.228;2023-09-19T15:17:40;21.10;93.30
49579;DHT22;35483;50.828;3.228;2023-09-19T15:20:07;21.10;93.40
49579;DHT22;35483;50.828;3.228;2023-09-19T15:22:33;21.00;93.30
49579;DHT22;35483;50.828;3.228;2023-09-19T15:25:01;21.00;93.40
49579;DHT22;35483;50.828;3.228;2023-09-19T15:27:28;21.00;93.40
49579;DHT22;35483;50.828;3.228;2023-09-19T15:29:56;20.90;93.40
49579;DHT22;35483;50.828;3.228;2023-09-19T15:32:24;20.90;93.40
49579;DHT22;35483;50.828;3.228;2023-09-19T15:34:50;20.80;93.30
49579;DHT22;35483;50.828;3.228;2023-09-19T15:37:15;20.90;93.40
49579;DHT22;35483;50.828;3.228;2023-09-19T15:39:41;20.90;93.40
49579;DHT22;35483;50.828;3.228;2023-09-19T15:42:07;20.90;93.40
49579;DHT22;35483;50.828;3.228;2023-09-19T15:44:33;20.90;93.40
49579;DHT22;35483;50.828;3.228;2023-09-19T15:46:59;20.90;93.40
49579;DHT22;35483;50.828;3.228;2023-09-19T15:49:25;20.80;93.50
49579;DHT22;35483;50.828;3.228;2023-09-19T15:51:51;20.80;93.80
49579;DHT22;35483;50.828;3.228;2023-09-19T15:54:17;20.70;93.60
49579;DHT22;35483;50.828;3.228;2023-09-19T15:56:45;20.70;94.00
49579;DHT22;35483;50.828;3.228;2023-09-19T15:59:11;20.60;93.80
49579;DHT22;35483;50.828;3.228;2023-09-19T16:01:44;20.60;93.80
49579;DHT22;35483;50.828;3.228;2023-09-19T16:04:10;20.50;93.90
49579;DHT22;35483;50.828;3.228;2023-09-19T16:06:37;20.40;93.90
49579;DHT22;35483;50.828;3.228;2023-09-19T16:09:05;20.30;94.00
49579;DHT22;35483;50.828;3.228;2023-09-19T16:11:35;20.30;94.10
49579;DHT22;35483;50.828;3.228;2023-09-19T16:14:01;20.20;94.30
49579;DHT22;35483;50.828;3.228;2023-09-19T16:16:28;20.20;94.20
49579;DHT22;35483;50.828;3.228;2023-09-19T16:19:00;20.10;94.20
49579;DHT22;35483;50.828;3.228;2023-09-19T16:21:31;20.00;94.30
49579;DHT22;35483;50.828;3.228;2023-09-19T16:23:58;20.10;94.60
49579;DHT22;35483;50.828;3.228;2023-09-19T16:26:25;20.00;94.30
49579;DHT22;35483;50.828;3.228;2023-09-19T16:28:57;20.00;94.30
49579;DHT22;35483;50.828;3.228;2023-09-19T16:31:29;19.90;94.40
49579;DHT22;35483;50.828;3.228;2023-09-19T16:33:56;19.80;94.70
49579;DHT22;35483;50.828;3.228;2023-09-19T16:36:23;19.80;94.40
49579;DHT22;35483;50.828;3.228;2023-09-19T16:38:49;19.80;94.50
49579;DHT22;35483;50.828;3.228;2023-09-19T16:41:15;19.80;94.50
49579;DHT22;35483;50.828;3.228;2023-09-19T16:43:42;19.80;94.50